Time,TemperatureF,DewpointF,PressureIn,WindDirection,WindDirectionDegrees,WindSpeedMPH,WindSpeedGustMPH,Humidity,HourlyPrecipIn,Conditions,Clouds,dailyrainin,SoftwareType,DateUTC
2013-07-04 00:02:00,69.0,60.0,29.82,WSW,246,0.0,-999.0,74,-99.99,,,-99.99,,2013-07-04 07:02:00,
2013-07-04 00:11:00,69.0,60.0,29.82,WSW,246,0.0,-999.0,74,-99.99,,,-99.99,,2013-07-04 07:11:00,
2013-07-04 00:21:00,69.0,60.0,29.83,WSW,246,0.0,-999.0,74,-99.99,,,-99.99,,2013-07-04 07:21:00,
2013-07-04 00:34:00,68.0,60.0,29.83,WSW,246,0.0,-999.0,76,-99.99,,,-99.99,,2013-07-04 07:34:00,
2013-07-04 00:43:00,68.0,60.0,29.83,WSW,246,0.0,-999.0,76,-99.99,,,-99.99,,2013-07-04 07:43:00,
2013-07-04 00:52:00,68.0,59.0,29.83,WSW,246,0.0,-999.0,74,-99.99,,,-99.99,,2013-07-04 07:52:00,
2013-07-04 01:02:00,67.0,59.0,29.83,WSW,246,0.0,-999.0,76,-99.99,,,-99.99,,2013-07-04 08:02:00,
2013-07-04 01:11:00,67.0,59.0,29.83,WSW,246,0.0,-999.0,76,-99.99,,,-99.99,,2013-07-04 08:11:00,
2013-07-04 01:21:00,67.0,59.0,29.83,WSW,246,0.0,-999.0,76,-99.99,,,-99.99,,2013-07-04 08:21:00,
2013-07-04 01:33:00,67.0,59.0,29.83,WSW,246,0.0,-999.0,76,-99.99,,,-99.99,,2013-07-04 08:33:00,
2013-07-04 01:42:00,67.0,59.0,29.83,WSW,246,0.0,-999.0,76,-99.99,,,-99.99,,2013-07-04 08:42:00,
2013-07-04 01:53:00,66.0,59.0,29.83,WSW,246,0.0,-999.0,78,-99.99,,,-99.99,,2013-07-04 08:53:00,
2013-07-04 02:02:00,66.0,59.0,29.83,WSW,246,0.0,-999.0,78,-99.99,,,-99.99,,2013-07-04 09:02:00,
2013-07-04 02:11:00,66.0,59.0,29.83,WSW,246,0.0,-999.0,78,-99.99,,,-99.99,,2013-07-04 09:11:00,
2013-07-04 02:22:00,65.0,59.0,29.84,WSW,246,0.0,-999.0,80,-99.99,,,-99.99,,2013-07-04 09:22:00,
2013-07-04 02:32:00,65.0,58.0,29.84,WSW,246,0.0,-999.0,79,-99.99,,,-99.99,,2013-07-04 09:32:00,
2013-07-04 02:42:00,65.0,58.0,29.84,WSW,246,0.0,-999.0,79,-99.99,,,-99.99,,2013-07-04 09:42:00,
2013-07-04 02:52:00,64.0,58.0,29.84,WSW,246,0.0,-999.0,80,-99.99,,,-99.99,,2013-07-04 09:52:00,
2013-07-04 03:01:00,64.0,58.0,29.84,WSW,246,0.0,-999.0,81,-99.99,,,-99.99,,2013-07-04 10:01:00,
2013-07-04 03:11:00,64.0,58.0,29.84,WSW,246,0.0,-999.0,81,-99.99,,,-99.99,,2013-07-04 10:11:00,
2013-07-04 03:22:00,64.0,58.0,29.84,WSW,246,0.0,-999.0,81,-99.99,,,-99.99,,2013-07-04 10:22:00,
2013-07-04 03:42:00,63.0,57.0,29.84,WSW,246,0.0,-999.0,82,-99.99,,,-99.99,,2013-07-04 10:42:00,
2013-07-04 03:53:00,63.0,57.0,29.84,WSW,246,0.0,-999.0,82,-99.99,,,-99.99,,2013-07-04 10:53:00,
2013-07-04 04:02:00,63.0,58.0,29.84,WSW,246,0.0,-999.0,83,-99.99,,,-99.99,,2013-07-04 11:02:00,
2013-07-04 04:11:00,63.0,58.0,29.84,WSW,246,0.0,-999.0,83,-99.99,,,-99.99,,2013-07-04 11:11:00,
2013-07-04 04:22:00,62.0,57.0,29.84,WSW,246,0.0,-999.0,83,-99.99,,,-99.99,,2013-07-04 11:22:00,
2013-07-04 04:33:00,62.0,57.0,29.84,WSW,246,0.0,-999.0,83,-99.99,,,-99.99,,2013-07-04 11:33:00,
2013-07-04 04:43:00,62.0,57.0,29.84,WSW,246,0.0,-999.0,83,-99.99,,,-99.99,,2013-07-04 11:43:00,
2013-07-04 04:53:00,62.0,57.0,29.85,WSW,246,0.0,-999.0,85,-99.99,,,-99.99,,2013-07-04 11:53:00,
2013-07-04 05:01:00,62.0,57.0,29.85,WSW,246,0.0,-999.0,84,-99.99,,,-99.99,,2013-07-04 12:01:00,
2013-07-04 05:11:00,62.0,57.0,29.85,WSW,246,0.0,-999.0,84,-99.99,,,-99.99,,2013-07-04 12:11:00,
2013-07-04 05:22:00,62.0,57.0,29.85,WSW,246,0.0,-999.0,84,-99.99,,,-99.99,,2013-07-04 12:22:00,
2013-07-04 05:32:00,62.0,57.0,29.85,WSW,246,0.0,-999.0,84,-99.99,,,-99.99,,2013-07-04 12:32:00,
2013-07-04 05:43:00,61.0,56.0,29.85,WSW,246,0.0,-999.0,85,-99.99,,,-99.99,,2013-07-04 12:43:00,
2013-07-04 05:52:00,61.0,57.0,29.85,WSW,246,0.0,-999.0,86,-99.99,,,-99.99,,2013-07-04 12:52:00,
2013-07-04 06:11:00,61.0,57.0,29.86,WSW,246,0.0,-999.0,86,-99.99,,,-99.99,,2013-07-04 13:11:00,
2013-07-04 06:33:00,61.0,56.0,29.86,WSW,246,0.0,-999.0,85,-99.99,,,-99.99,,2013-07-04 13:33:00,
2013-07-04 06:43:00,62.0,57.0,29.86,WSW,246,0.0,-999.0,85,-99.99,,,-99.99,,2013-07-04 13:43:00,
2013-07-04 06:53:00,62.0,57.0,29.87,WSW,246,0.0,-999.0,85,-99.99,,,-99.99,,2013-07-04 13:53:00,
2013-07-04 07:02:00,63.0,58.0,29.86,WSW,246,0.0,-999.0,85,-99.99,,,-99.99,,2013-07-04 14:02:00,
2013-07-04 07:11:00,63.0,58.0,29.86,WSW,246,0.0,-999.0,85,-99.99,,,-99.99,,2013-07-04 14:11:00,
2013-07-04 07:33:00,64.0,59.0,29.86,WSW,246,0.0,-999.0,84,-99.99,,,-99.99,,2013-07-04 14:33:00,
2013-07-04 07:43:00,65.0,58.0,29.87,SW,227,0.0,-999.0,78,-99.99,,,-99.99,,2013-07-04 14:43:00,
2013-07-04 07:53:00,66.0,59.0,29.87,SW,227,0.0,-999.0,78,-99.99,,,-99.99,,2013-07-04 14:53:00,
2013-07-04 08:01:00,66.0,59.0,29.87,SW,227,0.0,-999.0,78,-99.99,,,-99.99,,2013-07-04 15:01:00,
2013-07-04 08:11:00,67.0,58.0,29.87,SW,227,0.0,-999.0,74,-99.99,,,-99.99,,2013-07-04 15:11:00,
2013-07-04 08:23:00,69.0,58.0,29.86,SSW,211,0.0,-999.0,69,-99.99,,,-99.99,,2013-07-04 15:23:00,
2013-07-04 08:33:00,70.0,59.0,29.86,SSW,211,0.0,-999.0,67,-99.99,,,-99.99,,2013-07-04 15:33:00,
2013-07-04 08:43:00,70.0,59.0,29.86,SSW,211,0.0,-999.0,67,-99.99,,,-99.99,,2013-07-04 15:43:00,
2013-07-04 08:52:00,72.0,60.0,29.86,SE,145,0.0,-999.0,65,-99.99,,,-99.99,,2013-07-04 15:52:00,
2013-07-04 09:01:00,73.0,60.0,29.85,SW,219,1.0,-999.0,63,-99.99,,,-99.99,,2013-07-04 16:01:00,
2013-07-04 09:11:00,73.0,60.0,29.85,SW,219,1.0,-999.0,63,-99.99,,,-99.99,,2013-07-04 16:11:00,
2013-07-04 09:22:00,74.0,60.0,29.85,SW,219,0.0,-999.0,62,-99.99,,,-99.99,,2013-07-04 16:22:00,
2013-07-04 09:33:00,75.0,59.0,29.84,West,263,1.0,-999.0,57,-99.99,,,-99.99,,2013-07-04 16:33:00,
2013-07-04 09:42:00,75.0,59.0,29.84,West,263,1.0,-999.0,57,-99.99,,,-99.99,,2013-07-04 16:42:00,
2013-07-04 09:52:00,76.0,57.0,29.84,SW,221,1.0,-999.0,52,-99.99,,,-99.99,,2013-07-04 16:52:00,
2013-07-04 10:01:00,77.0,55.0,29.83,WSW,238,1.0,-999.0,46,-99.99,,,-99.99,,2013-07-04 17:01:00,
2013-07-04 10:11:00,77.0,55.0,29.83,WSW,238,1.0,-999.0,46,-99.99,,,-99.99,,2013-07-04 17:11:00,
2013-07-04 10:22:00,79.0,55.0,29.83,West,271,2.0,-999.0,43,-99.99,,,-99.99,,2013-07-04 17:22:00,
2013-07-04 10:33:00,81.0,52.0,29.83,SSE,158,1.0,-999.0,37,-99.99,,,-99.99,,2013-07-04 17:33:00,
2013-07-04 10:43:00,81.0,52.0,29.83,SSE,158,1.0,-999.0,37,-99.99,,,-99.99,,2013-07-04 17:43:00,
2013-07-04 10:53:00,81.0,52.0,29.82,South,175,1.0,-999.0,37,-99.99,,,-99.99,,2013-07-04 17:53:00,
2013-07-04 11:01:00,82.0,54.0,29.82,WSW,255,2.0,-999.0,38,-99.99,,,-99.99,,2013-07-04 18:01:00,
2013-07-04 11:11:00,82.0,54.0,29.82,WSW,255,2.0,-999.0,38,-99.99,,,-99.99,,2013-07-04 18:11:00,
2013-07-04 11:22:00,82.0,55.0,29.82,SSE,155,2.0,-999.0,40,-99.99,,,-99.99,,2013-07-04 18:22:00,
2013-07-04 11:33:00,83.0,53.0,29.81,West,267,2.0,-999.0,36,-99.99,,,-99.99,,2013-07-04 18:33:00,
2013-07-04 11:43:00,83.0,53.0,29.81,West,267,2.0,-999.0,36,-99.99,,,-99.99,,2013-07-04 18:43:00,
2013-07-04 11:52:00,84.0,53.0,29.81,SSW,212,3.0,-999.0,35,-99.99,,,-99.99,,2013-07-04 18:52:00,
2013-07-04 12:01:00,85.0,54.0,29.80,SSW,192,2.0,-999.0,35,-99.99,,,-99.99,,2013-07-04 19:01:00,
2013-07-04 12:11:00,85.0,54.0,29.80,SSW,192,2.0,-999.0,35,-99.99,,,-99.99,,2013-07-04 19:11:00,
2013-07-04 12:22:00,84.0,52.0,29.80,West,274,1.0,-999.0,33,-99.99,,,-99.99,,2013-07-04 19:22:00,
2013-07-04 12:33:00,84.0,52.0,29.80,West,274,1.0,-999.0,33,-99.99,,,-99.99,,2013-07-04 19:33:00,
2013-07-04 12:43:00,85.0,52.0,29.80,NW,317,1.0,-999.0,32,-99.99,,,-99.99,,2013-07-04 19:43:00,
2013-07-04 12:53:00,86.0,52.0,29.79,South,188,1.0,-999.0,31,-99.99,,,-99.99,,2013-07-04 19:53:00,
2013-07-04 13:01:00,86.0,51.0,29.79,SSW,200,2.0,-999.0,30,-99.99,,,-99.99,,2013-07-04 20:01:00,
2013-07-04 13:11:00,86.0,51.0,29.79,SSW,200,2.0,-999.0,30,-99.99,,,-99.99,,2013-07-04 20:11:00,
2013-07-04 13:22:00,87.0,52.0,29.79,WSW,256,2.0,-999.0,30,-99.99,,,-99.99,,2013-07-04 20:22:00,
2013-07-04 13:33:00,87.0,51.0,29.78,SSW,193,2.0,-999.0,29,-99.99,,,-99.99,,2013-07-04 20:33:00,
2013-07-04 13:42:00,87.0,51.0,29.78,SSW,193,2.0,-999.0,29,-99.99,,,-99.99,,2013-07-04 20:42:00,
2013-07-04 13:53:00,87.0,49.0,29.78,SSW,194,2.0,-999.0,27,-99.99,,,-99.99,,2013-07-04 20:53:00,
2013-07-04 14:01:00,87.0,48.0,29.78,WSW,242,3.0,-999.0,26,-99.99,,,-99.99,,2013-07-04 21:01:00,
2013-07-04 14:11:00,87.0,48.0,29.78,WSW,242,3.0,-999.0,26,-99.99,,,-99.99,,2013-07-04 21:11:00,
2013-07-04 14:22:00,88.0,48.0,29.77,South,178,2.0,-999.0,25,-99.99,,,-99.99,,2013-07-04 21:22:00,
2013-07-04 14:32:00,88.0,47.0,29.77,West,263,3.0,-999.0,24,-99.99,,,-99.99,,2013-07-04 21:32:00,
2013-07-04 14:42:00,88.0,47.0,29.77,West,263,3.0,-999.0,24,-99.99,,,-99.99,,2013-07-04 21:42:00,
2013-07-04 14:53:00,89.0,49.0,29.76,SSE,163,3.0,-999.0,25,-99.99,,,-99.99,,2013-07-04 21:53:00,
2013-07-04 15:01:00,89.0,47.0,29.76,ESE,105,3.0,-999.0,24,-99.99,,,-99.99,,2013-07-04 22:01:00,
2013-07-04 15:11:00,89.0,47.0,29.76,ESE,105,3.0,-999.0,24,-99.99,,,-99.99,,2013-07-04 22:11:00,
2013-07-04 15:22:00,89.0,45.0,29.76,South,180,3.0,-999.0,22,-99.99,,,-99.99,,2013-07-04 22:22:00,
2013-07-04 15:33:00,89.0,46.0,29.75,SSE,158,4.0,-999.0,23,-99.99,,,-99.99,,2013-07-04 22:33:00,
2013-07-04 15:43:00,89.0,46.0,29.75,SSE,158,4.0,-999.0,23,-99.99,,,-99.99,,2013-07-04 22:43:00,
2013-07-04 15:52:00,88.0,47.0,29.75,SSE,160,4.0,-999.0,24,-99.99,,,-99.99,,2013-07-04 22:52:00,
2013-07-04 16:01:00,88.0,47.0,29.75,South,181,3.0,-999.0,24,-99.99,,,-99.99,,2013-07-04 23:01:00,
2013-07-04 16:11:00,88.0,47.0,29.75,South,181,3.0,-999.0,24,-99.99,,,-99.99,,2013-07-04 23:11:00,
2013-07-04 16:23:00,88.0,47.0,29.74,South,187,4.0,-999.0,24,-99.99,,,-99.99,,2013-07-04 23:23:00,
2013-07-04 16:33:00,87.0,46.0,29.73,South,186,2.0,-999.0,24,-99.99,,,-99.99,,2013-07-04 23:33:00,
2013-07-04 16:42:00,87.0,46.0,29.73,South,186,2.0,-999.0,24,-99.99,,,-99.99,,2013-07-04 23:42:00,
2013-07-04 16:52:00,87.0,47.0,29.73,SW,236,3.0,-999.0,25,-99.99,,,-99.99,,2013-07-04 23:52:00,
2013-07-04 17:01:00,88.0,48.0,29.72,SSE,166,2.0,-999.0,25,-99.99,,,-99.99,,2013-07-05 00:01:00,
2013-07-04 17:11:00,88.0,48.0,29.72,SSE,166,2.0,-999.0,25,-99.99,,,-99.99,,2013-07-05 00:11:00,
2013-07-04 17:32:00,87.0,47.0,29.72,SW,229,3.0,-999.0,25,-99.99,,,-99.99,,2013-07-05 00:32:00,
2013-07-04 17:43:00,86.0,49.0,29.72,SSW,194,2.0,-999.0,28,-99.99,,,-99.99,,2013-07-05 00:43:00,
2013-07-04 17:52:00,85.0,52.0,29.71,SSW,192,1.0,-999.0,32,-99.99,,,-99.99,,2013-07-05 00:52:00,
2013-07-04 18:01:00,85.0,52.0,29.71,SSW,192,1.0,-999.0,32,-99.99,,,-99.99,,2013-07-05 01:01:00,
2013-07-04 18:11:00,85.0,52.0,29.71,SSW,192,1.0,-999.0,32,-99.99,,,-99.99,,2013-07-05 01:11:00,
2013-07-04 18:21:00,85.0,53.0,29.72,SSW,192,0.0,-999.0,34,-99.99,,,-99.99,,2013-07-05 01:21:00,
2013-07-04 18:32:00,85.0,53.0,29.72,SSW,192,0.0,-999.0,34,-99.99,,,-99.99,,2013-07-05 01:32:00,
2013-07-04 18:42:00,85.0,53.0,29.72,SSW,192,0.0,-999.0,34,-99.99,,,-99.99,,2013-07-05 01:42:00,
2013-07-04 18:52:00,85.0,54.0,29.70,South,185,1.0,-999.0,35,-99.99,,,-99.99,,2013-07-05 01:52:00,
2013-07-04 19:02:00,85.0,54.0,29.70,South,185,1.0,-999.0,35,-99.99,,,-99.99,,2013-07-05 02:02:00,
2013-07-04 19:11:00,85.0,54.0,29.70,South,185,1.0,-999.0,35,-99.99,,,-99.99,,2013-07-05 02:11:00,
2013-07-04 19:21:00,84.0,53.0,29.70,South,185,0.0,-999.0,35,-99.99,,,-99.99,,2013-07-05 02:21:00,
2013-07-04 19:32:00,84.0,53.0,29.70,South,185,0.0,-999.0,35,-99.99,,,-99.99,,2013-07-05 02:32:00,
2013-07-04 19:42:00,84.0,53.0,29.70,South,185,0.0,-999.0,35,-99.99,,,-99.99,,2013-07-05 02:42:00,
2013-07-04 19:52:00,84.0,53.0,29.70,South,185,0.0,-999.0,35,-99.99,,,-99.99,,2013-07-05 02:52:00,
2013-07-04 20:02:00,84.0,53.0,29.70,South,185,0.0,-999.0,35,-99.99,,,-99.99,,2013-07-05 03:02:00,
2013-07-04 20:22:00,79.0,55.0,29.70,South,185,0.0,-999.0,43,-99.99,,,-99.99,,2013-07-05 03:22:00,
2013-07-04 20:33:00,79.0,55.0,29.70,South,185,0.0,-999.0,43,-99.99,,,-99.99,,2013-07-05 03:33:00,
2013-07-04 20:42:00,79.0,55.0,29.70,South,185,0.0,-999.0,43,-99.99,,,-99.99,,2013-07-05 03:42:00,
2013-07-04 20:52:00,79.0,55.0,29.70,South,185,0.0,-999.0,43,-99.99,,,-99.99,,2013-07-05 03:52:00,
2013-07-04 21:01:00,76.0,55.0,29.72,SSE,156,0.0,-999.0,49,-99.99,,,-99.99,,2013-07-05 04:01:00,
2013-07-04 21:11:00,76.0,55.0,29.72,SSE,156,0.0,-999.0,49,-99.99,,,-99.99,,2013-07-05 04:11:00,
2013-07-04 21:21:00,75.0,56.0,29.72,SSE,156,1.0,-999.0,52,-99.99,,,-99.99,,2013-07-05 04:21:00,
2013-07-04 21:33:00,75.0,56.0,29.72,SSE,156,1.0,-999.0,52,-99.99,,,-99.99,,2013-07-05 04:33:00,
2013-07-04 21:43:00,75.0,56.0,29.72,SSE,156,1.0,-999.0,52,-99.99,,,-99.99,,2013-07-05 04:43:00,
2013-07-04 21:53:00,71.0,56.0,29.73,SSE,156,0.0,-999.0,59,-99.99,,,-99.99,,2013-07-05 04:53:00,
2013-07-04 22:01:00,71.0,56.0,29.73,SSE,156,0.0,-999.0,59,-99.99,,,-99.99,,2013-07-05 05:01:00,
2013-07-04 22:12:00,71.0,56.0,29.73,SSE,156,0.0,-999.0,59,-99.99,,,-99.99,,2013-07-05 05:12:00,
2013-07-04 22:21:00,71.0,55.0,29.74,SSE,156,0.0,-999.0,57,-99.99,,,-99.99,,2013-07-05 05:21:00,
2013-07-04 22:33:00,69.0,55.0,29.74,SSE,156,0.0,-999.0,62,-99.99,,,-99.99,,2013-07-05 05:33:00,
2013-07-04 22:43:00,69.0,55.0,29.74,SSE,156,0.0,-999.0,62,-99.99,,,-99.99,,2013-07-05 05:43:00,
2013-07-04 22:52:00,68.0,55.0,29.74,SSE,156,0.0,-999.0,63,-99.99,,,-99.99,,2013-07-05 05:52:00,
2013-07-04 23:01:00,67.0,55.0,29.75,SSE,156,0.0,-999.0,65,-99.99,,,-99.99,,2013-07-05 06:01:00,
2013-07-04 23:12:00,67.0,55.0,29.75,SSE,156,0.0,-999.0,65,-99.99,,,-99.99,,2013-07-05 06:12:00,
2013-07-04 23:23:00,66.0,55.0,29.75,SSE,156,0.0,-999.0,67,-99.99,,,-99.99,,2013-07-05 06:23:00,
2013-07-04 23:34:00,66.0,55.0,29.76,SSE,156,0.0,-999.0,68,-99.99,,,-99.99,,2013-07-05 06:34:00,
2013-07-04 23:43:00,66.0,55.0,29.76,SSE,156,0.0,-999.0,68,-99.99,,,-99.99,,2013-07-05 06:43:00,
2013-07-04 23:53:00,65.0,54.0,29.76,SSE,156,0.0,-999.0,67,-99.99,,,-99.99,,2013-07-05 06:53:00,